sensor_id;sensor_type;location;lat;lon;timestamp;P1;durP1;ratioP1;P2;durP2;ratioP2
71572;SDS011;59408;51.032;9.410;2023-04-07T00:00:35;13.13;;;6.57;;
71572;SDS011;59408;51.032;9.410;2023-04-07T00:03:02;12.95;;;6.53;;
71572;SDS011;59408;51.032;9.410;2023-04-07T00:05:29;14.23;;;6.35;;
71572;SDS011;59408;51.032;9.410;2023-04-07T00:07:56;13.55;;;6.95;;
71572;SDS011;59408;51.032;9.410;2023-04-07T00:10:24;13.60;;;6.43;;
71572;SDS011;59408;51.032;9.410;2023-04-07T00:12:51;14.27;;;6.47;;
71572;SDS011;59408;51.032;9.410;2023-04-07T00:15:18;13.38;;;6.40;;
71572;SDS011;59408;51.032;9.410;2023-04-07T00:17:44;13.23;;;6.40;;
71572;SDS011;59408;51.032;9.410;2023-04-07T00:20:11;13.13;;;6.30;;
71572;SDS011;59408;51.032;9.410;2023-04-07T00:22:38;14.17;;;6.67;;
71572;SDS011;59408;51.032;9.410;2023-04-07T00:25:05;12.10;;;6.03;;
71572;SDS011;59408;51.032;9.410;2023-04-07T00:27:33;12.63;;;6.45;;
71572;SDS011;59408;51.032;9.410;2023-04-07T00:30:00;12.63;;;5.63;;
71572;SDS011;59408;51.032;9.410;2023-04-07T00:32:27;14.00;;;6.50;;
71572;SDS011;59408;51.032;9.410;2023-04-07T00:34:54;12.80;;;6.10;;
71572;SDS011;59408;51.032;9.410;2023-04-07T00:37:20;13.90;;;5.72;;
71572;SDS011;59408;51.032;9.410;2023-04-07T00:39:47;11.25;;;5.43;;
71572;SDS011;59408;51.032;9.410;2023-04-07T00:42:13;12.05;;;5.53;;
71572;SDS011;59408;51.032;9.410;2023-04-07T00:44:41;12.48;;;5.85;;
71572;SDS011;59408;51.032;9.410;2023-04-07T00:47:08;10.27;;;5.00;;
71572;SDS011;59408;51.032;9.410;2023-04-07T00:49:35;11.25;;;5.10;;
71572;SDS011;59408;51.032;9.410;2023-04-07T00:52:02;11.68;;;4.88;;
71572;SDS011;59408;51.032;9.410;2023-04-07T00:54:30;10.60;;;4.78;;
71572;SDS011;59408;51.032;9.410;2023-04-07T00:56:56;11.60;;;5.22;;
71572;SDS011;59408;51.032;9.410;2023-04-07T00:59:23;10.10;;;4.50;;
71572;SDS011;59408;51.032;9.410;2023-04-07T01:01:54;11.35;;;4.32;;
71572;SDS011;59408;51.032;9.410;2023-04-07T01:04:29;10.77;;;4.55;;
71572;SDS011;59408;51.032;9.410;2023-04-07T01:07:00;10.82;;;4.93;;
71572;SDS011;59408;51.032;9.410;2023-04-07T01:09:34;10.93;;;5.00;;
71572;SDS011;59408;51.032;9.410;2023-04-07T01:12:06;11.60;;;5.10;;
71572;SDS011;59408;51.032;9.410;2023-04-07T01:14:41;11.63;;;4.80;;
71572;SDS011;59408;51.032;9.410;2023-04-07T01:17:17;10.75;;;4.88;;
71572;SDS011;59408;51.032;9.410;2023-04-07T01:19:47;11.93;;;5.60;;
71572;SDS011;59408;51.032;9.410;2023-04-07T01:22:22;11.88;;;5.20;;
71572;SDS011;59408;51.032;9.410;2023-04-07T01:24:57;12.23;;;5.67;;
71572;SDS011;59408;51.032;9.410;2023-04-07T01:27:41;11.35;;;4.88;;
71572;SDS011;59408;51.032;9.410;2023-04-07T01:30:15;12.35;;;5.55;;
71572;SDS011;59408;51.032;9.410;2023-04-07T01:32:44;11.30;;;5.85;;
71572;SDS011;59408;51.032;9.410;2023-04-07T01:35:15;12.40;;;5.65;;
71572;SDS011;59408;51.032;9.410;2023-04-07T01:37:44;11.37;;;5.10;;
71572;SDS011;59408;51.032;9.410;2023-04-07T01:40:12;11.50;;;5.03;;
71572;SDS011;59408;51.032;9.410;2023-04-07T01:42:40;14.32;;;5.82;;
71572;SDS011;59408;51.032;9.410;2023-04-07T01:45:07;12.50;;;5.00;;
71572;SDS011;59408;51.032;9.410;2023-04-07T01:47:37;12.70;;;5.53;;
71572;SDS011;59408;51.032;9.410;2023-04-07T01:50:05;12.20;;;5.30;;
71572;SDS011;59408;51.032;9.410;2023-04-07T01:52:34;11.88;;;5.22;;
71572;SDS011;59408;51.032;9.410;2023-04-07T01:55:01;11.50;;;5.32;;
71572;SDS011;59408;51.032;9.410;2023-04-07T01:57:28;11.73;;;5.35;;
71572;SDS011;59408;51.032;9.410;2023-04-07T01:59:54;10.32;;;4.85;;
71572;SDS011;59408;51.032;9.410;2023-04-07T02:02:21;12.43;;;5.50;;
71572;SDS011;59408;51.032;9.410;2023-04-07T02:04:51;12.38;;;5.38;;
71572;SDS011;59408;51.032;9.410;2023-04-07T02:07:21;11.48;;;4.90;;
71572;SDS011;59408;51.032;9.410;2023-04-07T02:09:53;10.70;;;5.15;;
71572;SDS011;59408;51.032;9.410;2023-04-07T02:12:23;11.02;;;4.70;;
71572;SDS011;59408;51.032;9.410;2023-04-07T02:14:52;11.40;;;4.67;;
71572;SDS011;59408;51.032;9.410;2023-04-07T02:17:19;12.80;;;5.00;;
71572;SDS011;59408;51.032;9.410;2023-04-07T02:19:49;10.68;;;4.45;;
71572;SDS011;59408;51.032;9.410;2023-04-07T02:22:17;10.60;;;4.97;;
71572;SDS011;59408;51.032;9.410;2023-04-07T02:24:44;10.52;;;4.95;;
71572;SDS011;59408;51.032;9.410;2023-04-07T02:27:11;10.20;;;4.40;;
71572;SDS011;59408;51.032;9.410;2023-04-07T02:29:37;11.10;;;4.93;;
71572;SDS011;59408;51.032;9.410;2023-04-07T02:32:04;9.55;;;4.43;;
71572;SDS011;59408;51.032;9.410;2023-04-07T02:34:31;10.63;;;4.35;;
71572;SDS011;59408;51.032;9.410;2023-04-07T02:36:59;9.95;;;4.07;;
71572;SDS011;59408;51.032;9.410;2023-04-07T02:39:26;9.87;;;4.90;;
71572;SDS011;59408;51.032;9.410;2023-04-07T02:41:52;10.82;;;4.50;;
71572;SDS011;59408;51.032;9.410;2023-04-07T02:44:19;10.57;;;5.13;;
71572;SDS011;59408;51.032;9.410;2023-04-07T02:46:46;9.88;;;4.22;;
71572;SDS011;59408;51.032;9.410;2023-04-07T02:49:12;10.38;;;4.65;;
71572;SDS011;59408;51.032;9.410;2023-04-07T02:51:39;10.33;;;4.60;;
71572;SDS011;59408;51.032;9.410;2023-04-07T02:54:07;9.77;;;4.60;;
71572;SDS011;59408;51.032;9.410;2023-04-07T02:56:34;10.75;;;4.90;;
71572;SDS011;59408;51.032;9.410;2023-04-07T02:59:00;10.00;;;4.65;;
71572;SDS011;59408;51.032;9.410;2023-04-07T03:01:27;10.75;;;4.68;;
71572;SDS011;59408;51.032;9.410;2023-04-07T03:03:53;10.80;;;4.50;;
71572;SDS011;59408;51.032;9.410;2023-04-07T03:06:21;9.02;;;4.05;;
71572;SDS011;59408;51.032;9.410;2023-04-07T03:08:47;9.80;;;4.65;;
71572;SDS011;59408;51.032;9.410;2023-04-07T03:11:15;10.88;;;4.55;;
71572;SDS011;59408;51.032;9.410;2023-04-07T03:13:42;11.48;;;4.75;;
71572;SDS011;59408;51.032;9.410;2023-04-07T03:16:08;10.63;;;4.67;;
71572;SDS011;59408;51.032;9.410;2023-04-07T03:18:35;9.48;;;4.65;;
71572;SDS011;59408;51.032;9.410;2023-04-07T03:21:02;10.77;;;5.15;;
71572;SDS011;59408;51.032;9.410;2023-04-07T03:23:28;11.88;;;4.93;;
71572;SDS011;59408;51.032;9.410;2023-04-07T03:25:55;10.43;;;4.97;;
71572;SDS011;59408;51.032;9.410;2023-04-07T03:28:23;11.67;;;5.10;;
71572;SDS011;59408;51.032;9.410;2023-04-07T03:30:50;12.77;;;5.30;;
71572;SDS011;59408;51.032;9.410;2023-04-07T03:33:17;14.15;;;5.10;;
71572;SDS011;59408;51.032;9.410;2023-04-07T03:35:43;11.25;;;5.20;;
71572;SDS011;59408;51.032;9.410;2023-04-07T03:38:10;13.32;;;5.13;;
71572;SDS011;59408;51.032;9.410;2023-04-07T03:40:36;10.57;;;4.80;;
71572;SDS011;59408;51.032;9.410;2023-04-07T03:43:03;13.23;;;5.90;;
71572;SDS011;59408;51.032;9.410;2023-04-07T03:45:33;12.32;;;5.30;;
71572;SDS011;59408;51.032;9.410;2023-04-07T03:48:00;10.88;;;5.30;;
71572;SDS011;59408;51.032;9.410;2023-04-07T03:50:27;10.70;;;5.45;;
71572;SDS011;59408;51.032;9.410;2023-04-07T03:52:53;11.53;;;5.33;;
71572;SDS011;59408;51.032;9.410;2023-04-07T03:55:20;11.75;;;5.40;;
71572;SDS011;59408;51.032;9.410;2023-04-07T03:57:47;12.20;;;5.80;;
71572;SDS011;59408;51.032;9.410;2023-04-07T04:00:14;11.63;;;5.38;;
71572;SDS011;59408;51.032;9.410;2023-04-07T04:02:42;12.93;;;5.68;;
71572;SDS011;59408;51.032;9.410;2023-04-07T04:05:09;11.17;;;5.43;;
71572;SDS011;59408;51.032;9.410;2023-04-07T04:07:35;12.57;;;5.47;;
71572;SDS011;59408;51.032;9.410;2023-04-07T04:10:02;10.80;;;4.97;;
71572;SDS011;59408;51.032;9.410;2023-04-07T04:12:29;10.35;;;5.35;;
71572;SDS011;59408;51.032;9.410;2023-04-07T04:14:55;11.02;;;5.30;;
71572;SDS011;59408;51.032;9.410;2023-04-07T04:17:22;12.17;;;5.37;;
71572;SDS011;59408;51.032;9.410;2023-04-07T04:19:50;11.35;;;5.55;;
71572;SDS011;59408;51.032;9.410;2023-04-07T04:22:17;11.30;;;5.70;;
71572;SDS011;59408;51.032;9.410;2023-04-07T04:24:43;13.30;;;5.78;;
71572;SDS011;59408;51.032;9.410;2023-04-07T04:27:10;11.88;;;5.60;;
71572;SDS011;59408;51.032;9.410;2023-04-07T04:29:37;12.03;;;5.50;;
71572;SDS011;59408;51.032;9.410;2023-04-07T04:32:03;11.15;;;5.10;;
71572;SDS011;59408;51.032;9.410;2023-04-07T04:34:30;12.00;;;5.72;;
71572;SDS011;59408;51.032;9.410;2023-04-07T04:36:58;12.48;;;6.10;;
71572;SDS011;59408;51.032;9.410;2023-04-07T04:39:25;12.05;;;5.72;;
71572;SDS011;59408;51.032;9.410;2023-04-07T04:41:51;12.30;;;5.77;;
71572;SDS011;59408;51.032;9.410;2023-04-07T04:44:18;12.07;;;5.80;;
71572;SDS011;59408;51.032;9.410;2023-04-07T04:46:44;11.85;;;5.57;;
71572;SDS011;59408;51.032;9.410;2023-04-07T04:49:11;13.73;;;5.30;;
71572;SDS011;59408;51.032;9.410;2023-04-07T04:51:38;12.93;;;5.85;;
71572;SDS011;59408;51.032;9.410;2023-04-07T04:54:06;11.57;;;5.30;;
71572;SDS011;59408;51.032;9.410;2023-04-07T04:56:32;12.43;;;5.40;;
71572;SDS011;59408;51.032;9.410;2023-04-07T04:58:59;12.50;;;5.95;;
71572;SDS011;59408;51.032;9.410;2023-04-07T05:01:26;13.00;;;5.82;;
71572;SDS011;59408;51.032;9.410;2023-04-07T05:03:52;10.50;;;5.25;;
71572;SDS011;59408;51.032;9.410;2023-04-07T05:06:20;10.83;;;5.20;;
71572;SDS011;59408;51.032;9.410;2023-04-07T05:08:47;11.65;;;5.32;;
71572;SDS011;59408;51.032;9.410;2023-04-07T05:11:15;11.40;;;5.05;;
71572;SDS011;59408;51.032;9.410;2023-04-07T05:13:41;12.90;;;5.60;;
71572;SDS011;59408;51.032;9.410;2023-04-07T05:16:08;10.27;;;4.90;;
71572;SDS011;59408;51.032;9.410;2023-04-07T05:18:34;11.20;;;5.47;;
71572;SDS011;59408;51.032;9.410;2023-04-07T05:21:01;10.65;;;5.07;;
71572;SDS011;59408;51.032;9.410;2023-04-07T05:23:28;11.98;;;5.65;;
71572;SDS011;59408;51.032;9.410;2023-04-07T05:25:54;10.93;;;5.20;;
71572;SDS011;59408;51.032;9.410;2023-04-07T05:28:22;12.30;;;5.03;;
71572;SDS011;59408;51.032;9.410;2023-04-07T05:30:49;10.43;;;5.17;;
71572;SDS011;59408;51.032;9.410;2023-04-07T05:33:16;11.88;;;5.32;;
71572;SDS011;59408;51.032;9.410;2023-04-07T05:35:43;11.25;;;5.07;;
71572;SDS011;59408;51.032;9.410;2023-04-07T05:38:09;9.73;;;5.05;;
71572;SDS011;59408;51.032;9.410;2023-04-07T05:40:36;10.48;;;4.55;;
71572;SDS011;59408;51.032;9.410;2023-04-07T05:43:03;11.13;;;4.83;;
71572;SDS011;59408;51.032;9.410;2023-04-07T05:45:31;9.57;;;4.60;;
71572;SDS011;59408;51.032;9.410;2023-04-07T05:47:58;10.13;;;4.25;;
71572;SDS011;59408;51.032;9.410;2023-04-07T05:50:24;10.63;;;4.95;;
71572;SDS011;59408;51.032;9.410;2023-04-07T05:52:51;9.85;;;4.57;;
71572;SDS011;59408;51.032;9.410;2023-04-07T05:55:17;10.93;;;4.40;;
71572;SDS011;59408;51.032;9.410;2023-04-07T05:57:44;11.73;;;4.78;;
71572;SDS011;59408;51.032;9.410;2023-04-07T06:00:11;10.82;;;4.60;;
71572;SDS011;59408;51.032;9.410;2023-04-07T06:02:40;10.85;;;4.20;;
71572;SDS011;59408;51.032;9.410;2023-04-07T06:05:07;10.05;;;4.20;;
71572;SDS011;59408;51.032;9.410;2023-04-07T06:07:34;9.50;;;4.20;;
71572;SDS011;59408;51.032;9.410;2023-04-07T06:10:01;10.13;;;4.65;;
71572;SDS011;59408;51.032;9.410;2023-04-07T06:12:27;10.43;;;4.70;;
71572;SDS011;59408;51.032;9.410;2023-04-07T06:14:54;10.30;;;4.38;;
71572;SDS011;59408;51.032;9.410;2023-04-07T06:17:21;9.95;;;4.88;;
71572;SDS011;59408;51.032;9.410;2023-04-07T06:19:50;10.70;;;5.30;;
71572;SDS011;59408;51.032;9.410;2023-04-07T06:22:16;10.23;;;5.13;;
71572;SDS011;59408;51.032;9.410;2023-04-07T06:24:43;9.98;;;4.32;;
71572;SDS011;59408;51.032;9.410;2023-04-07T06:27:10;9.43;;;4.78;;
71572;SDS011;59408;51.032;9.410;2023-04-07T06:29:37;9.60;;;4.60;;
71572;SDS011;59408;51.032;9.410;2023-04-07T06:32:04;9.30;;;4.00;;
71572;SDS011;59408;51.032;9.410;2023-04-07T06:34:31;9.85;;;4.60;;
71572;SDS011;59408;51.032;9.410;2023-04-07T06:36:59;9.02;;;4.32;;
71572;SDS011;59408;51.032;9.410;2023-04-07T06:39:26;7.75;;;3.70;;
71572;SDS011;59408;51.032;9.410;2023-04-07T06:41:52;9.50;;;4.40;;
71572;SDS011;59408;51.032;9.410;2023-04-07T06:44:19;9.53;;;4.17;;
71572;SDS011;59408;51.032;9.410;2023-04-07T06:46:46;9.27;;;4.20;;
71572;SDS011;59408;51.032;9.410;2023-04-07T06:49:12;9.00;;;4.28;;
71572;SDS011;59408;51.032;9.410;2023-04-07T06:51:39;9.20;;;4.47;;
71572;SDS011;59408;51.032;9.410;2023-04-07T06:54:07;9.23;;;4.07;;
71572;SDS011;59408;51.032;9.410;2023-04-07T06:56:34;8.97;;;4.07;;
71572;SDS011;59408;51.032;9.410;2023-04-07T06:59:00;8.32;;;3.63;;
71572;SDS011;59408;51.032;9.410;2023-04-07T07:01:27;8.88;;;4.18;;
71572;SDS011;59408;51.032;9.410;2023-04-07T07:03:53;9.10;;;3.97;;
71572;SDS011;59408;51.032;9.410;2023-04-07T07:06:20;8.07;;;4.13;;
71572;SDS011;59408;51.032;9.410;2023-04-07T07:08:47;8.70;;;3.77;;
71572;SDS011;59408;51.032;9.410;2023-04-07T07:11:15;8.93;;;3.83;;
71572;SDS011;59408;51.032;9.410;2023-04-07T07:13:41;8.23;;;3.80;;
71572;SDS011;59408;51.032;9.410;2023-04-07T07:16:08;8.68;;;4.20;;
71572;SDS011;59408;51.032;9.410;2023-04-07T07:18:35;9.25;;;4.03;;
71572;SDS011;59408;51.032;9.410;2023-04-07T07:21:01;9.60;;;3.70;;
71572;SDS011;59408;51.032;9.410;2023-04-07T07:23:28;8.23;;;3.90;;
71572;SDS011;59408;51.032;9.410;2023-04-07T07:25:55;8.77;;;4.10;;
71572;SDS011;59408;51.032;9.410;2023-04-07T07:28:23;9.13;;;4.40;;
71572;SDS011;59408;51.032;9.410;2023-04-07T07:30:49;7.90;;;3.78;;
71572;SDS011;59408;51.032;9.410;2023-04-07T07:33:16;9.57;;;3.83;;
71572;SDS011;59408;51.032;9.410;2023-04-07T07:35:43;9.07;;;4.60;;
71572;SDS011;59408;51.032;9.410;2023-04-07T07:38:09;9.88;;;4.40;;
71572;SDS011;59408;51.032;9.410;2023-04-07T07:40:36;8.60;;;3.85;;
71572;SDS011;59408;51.032;9.410;2023-04-07T07:43:03;10.27;;;4.78;;
71572;SDS011;59408;51.032;9.410;2023-04-07T07:45:31;9.50;;;4.37;;
71572;SDS011;59408;51.032;9.410;2023-04-07T07:47:57;9.40;;;4.35;;
71572;SDS011;59408;51.032;9.410;2023-04-07T07:50:24;9.13;;;4.13;;
71572;SDS011;59408;51.032;9.410;2023-04-07T07:52:51;9.95;;;4.43;;
71572;SDS011;59408;51.032;9.410;2023-04-07T07:55:17;9.80;;;4.38;;
71572;SDS011;59408;51.032;9.410;2023-04-07T07:57:44;9.20;;;4.30;;
71572;SDS011;59408;51.032;9.410;2023-04-07T08:00:11;9.40;;;4.70;;
71572;SDS011;59408;51.032;9.410;2023-04-07T08:02:39;9.52;;;4.93;;
71572;SDS011;59408;51.032;9.410;2023-04-07T08:05:07;8.75;;;4.32;;
71572;SDS011;59408;51.032;9.410;2023-04-07T08:07:33;10.50;;;4.75;;
71572;SDS011;59408;51.032;9.410;2023-04-07T08:10:00;9.20;;;4.50;;
71572;SDS011;59408;51.032;9.410;2023-04-07T08:12:27;9.65;;;4.30;;
71572;SDS011;59408;51.032;9.410;2023-04-07T08:14:53;8.88;;;4.30;;
71572;SDS011;59408;51.032;9.410;2023-04-07T08:17:20;10.20;;;4.45;;
71572;SDS011;59408;51.032;9.410;2023-04-07T08:19:48;8.85;;;4.15;;
71572;SDS011;59408;51.032;9.410;2023-04-07T08:22:14;9.23;;;4.30;;
71572;SDS011;59408;51.032;9.410;2023-04-07T08:24:41;8.15;;;3.60;;
71572;SDS011;59408;51.032;9.410;2023-04-07T08:27:08;9.68;;;4.10;;
71572;SDS011;59408;51.032;9.410;2023-04-07T08:29:34;10.63;;;4.35;;
71572;SDS011;59408;51.032;9.410;2023-04-07T08:32:01;10.15;;;4.40;;
71572;SDS011;59408;51.032;9.410;2023-04-07T08:34:28;9.73;;;4.83;;
71572;SDS011;59408;51.032;9.410;2023-04-07T08:36:56;8.97;;;3.90;;
71572;SDS011;59408;51.032;9.410;2023-04-07T08:39:22;9.45;;;4.03;;
71572;SDS011;59408;51.032;9.410;2023-04-07T08:41:49;10.68;;;4.57;;
71572;SDS011;59408;51.032;9.410;2023-04-07T08:44:16;9.15;;;4.38;;
71572;SDS011;59408;51.032;9.410;2023-04-07T08:46:45;11.05;;;5.10;;
71572;SDS011;59408;51.032;9.410;2023-04-07T08:49:13;10.27;;;4.87;;
71572;SDS011;59408;51.032;9.410;2023-04-07T08:51:43;10.45;;;5.20;;
71572;SDS011;59408;51.032;9.410;2023-04-07T08:54:13;10.07;;;4.88;;
71572;SDS011;59408;51.032;9.410;2023-04-07T08:56:41;10.15;;;4.72;;
71572;SDS011;59408;51.032;9.410;2023-04-07T08:59:09;9.68;;;4.60;;
71572;SDS011;59408;51.032;9.410;2023-04-07T09:01:38;11.10;;;5.10;;
71572;SDS011;59408;51.032;9.410;2023-04-07T09:04:05;10.05;;;4.68;;
71572;SDS011;59408;51.032;9.410;2023-04-07T09:06:33;9.30;;;4.53;;
71572;SDS011;59408;51.032;9.410;2023-04-07T09:09:00;9.70;;;4.50;;
71572;SDS011;59408;51.032;9.410;2023-04-07T09:11:28;9.57;;;4.63;;
71572;SDS011;59408;51.032;9.410;2023-04-07T09:13:55;8.97;;;4.30;;
71572;SDS011;59408;51.032;9.410;2023-04-07T09:16:22;10.18;;;4.80;;
71572;SDS011;59408;51.032;9.410;2023-04-07T09:18:49;9.98;;;4.50;;
71572;SDS011;59408;51.032;9.410;2023-04-07T09:21:16;12.50;;;5.35;;
71572;SDS011;59408;51.032;9.410;2023-04-07T09:23:42;10.43;;;4.68;;
71572;SDS011;59408;51.032;9.410;2023-04-07T09:26:19;11.50;;;5.43;;
71572;SDS011;59408;51.032;9.410;2023-04-07T09:28:50;10.90;;;4.82;;
71572;SDS011;59408;51.032;9.410;2023-04-07T09:31:18;8.80;;;4.43;;
71572;SDS011;59408;51.032;9.410;2023-04-07T09:33:45;9.55;;;4.30;;
71572;SDS011;59408;51.032;9.410;2023-04-07T09:36:12;10.38;;;4.85;;
71572;SDS011;59408;51.032;9.410;2023-04-07T09:38:39;9.50;;;4.63;;
71572;SDS011;59408;51.032;9.410;2023-04-07T09:41:07;9.05;;;4.50;;
71572;SDS011;59408;51.032;9.410;2023-04-07T09:43:35;9.15;;;4.72;;
71572;SDS011;59408;51.032;9.410;2023-04-07T09:46:09;8.57;;;4.20;;
71572;SDS011;59408;51.032;9.410;2023-04-07T09:48:37;8.15;;;4.03;;
71572;SDS011;59408;51.032;9.410;2023-04-07T09:51:04;9.33;;;4.03;;
71572;SDS011;59408;51.032;9.410;2023-04-07T09:53:39;8.63;;;4.18;;
71572;SDS011;59408;51.032;9.410;2023-04-07T09:56:10;10.82;;;4.38;;
71572;SDS011;59408;51.032;9.410;2023-04-07T09:58:38;10.18;;;4.53;;
71572;SDS011;59408;51.032;9.410;2023-04-07T10:01:06;10.32;;;5.15;;
71572;SDS011;59408;51.032;9.410;2023-04-07T10:03:35;10.63;;;4.80;;
71572;SDS011;59408;51.032;9.410;2023-04-07T10:06:02;10.43;;;4.57;;
71572;SDS011;59408;51.032;9.410;2023-04-07T10:08:30;10.23;;;4.78;;
71572;SDS011;59408;51.032;9.410;2023-04-07T10:10:58;8.55;;;4.15;;
71572;SDS011;59408;51.032;9.410;2023-04-07T10:13:26;9.63;;;4.32;;
71572;SDS011;59408;51.032;9.410;2023-04-07T10:15:54;8.63;;;4.23;;
71572;SDS011;59408;51.032;9.410;2023-04-07T10:18:21;8.30;;;3.88;;
71572;SDS011;59408;51.032;9.410;2023-04-07T10:20:51;8.23;;;3.75;;
71572;SDS011;59408;51.032;9.410;2023-04-07T10:23:21;9.43;;;3.92;;
71572;SDS011;59408;51.032;9.410;2023-04-07T10:25:53;7.65;;;3.53;;
71572;SDS011;59408;51.032;9.410;2023-04-07T10:28:23;8.13;;;3.73;;
71572;SDS011;59408;51.032;9.410;2023-04-07T10:30:51;8.90;;;3.95;;
71572;SDS011;59408;51.032;9.410;2023-04-07T10:33:21;7.95;;;3.95;;
71572;SDS011;59408;51.032;9.410;2023-04-07T10:36:11;9.48;;;4.25;;
71572;SDS011;59408;51.032;9.410;2023-04-07T10:38:38;10.07;;;4.90;;
71572;SDS011;59408;51.032;9.410;2023-04-07T10:44:00;9.27;;;4.43;;
71572;SDS011;59408;51.032;9.410;2023-04-07T10:49:38;11.75;;;6.13;;
71572;SDS011;59408;51.032;9.410;2023-04-07T11:03:53;6.93;;;3.42;;
71572;SDS011;59408;51.032;9.410;2023-04-07T11:06:28;7.60;;;3.60;;
71572;SDS011;59408;51.032;9.410;2023-04-07T11:08:56;7.73;;;3.40;;
71572;SDS011;59408;51.032;9.410;2023-04-07T11:11:36;7.93;;;3.95;;
71572;SDS011;59408;51.032;9.410;2023-04-07T11:14:04;7.38;;;3.58;;
71572;SDS011;59408;51.032;9.410;2023-04-07T11:16:35;8.25;;;4.07;;
71572;SDS011;59408;51.032;9.410;2023-04-07T11:19:03;9.65;;;4.70;;
71572;SDS011;59408;51.032;9.410;2023-04-07T11:21:30;9.03;;;4.50;;
71572;SDS011;59408;51.032;9.410;2023-04-07T11:23:58;8.07;;;3.97;;
71572;SDS011;59408;51.032;9.410;2023-04-07T11:26:24;8.98;;;4.72;;
71572;SDS011;59408;51.032;9.410;2023-04-07T11:28:52;9.02;;;4.50;;
71572;SDS011;59408;51.032;9.410;2023-04-07T11:31:20;9.25;;;4.82;;
71572;SDS011;59408;51.032;9.410;2023-04-07T11:33:50;10.70;;;4.93;;
71572;SDS011;59408;51.032;9.410;2023-04-07T11:36:24;9.25;;;4.47;;
71572;SDS011;59408;51.032;9.410;2023-04-07T11:38:52;10.20;;;4.68;;
71572;SDS011;59408;51.032;9.410;2023-04-07T11:41:20;9.93;;;4.85;;
71572;SDS011;59408;51.032;9.410;2023-04-07T11:43:47;10.32;;;5.22;;
71572;SDS011;59408;51.032;9.410;2023-04-07T11:46:16;10.27;;;5.67;;
71572;SDS011;59408;51.032;9.410;2023-04-07T11:48:44;10.63;;;6.00;;
71572;SDS011;59408;51.032;9.410;2023-04-07T11:51:15;10.05;;;5.32;;
71572;SDS011;59408;51.032;9.410;2023-04-07T11:53:42;11.05;;;5.47;;
71572;SDS011;59408;51.032;9.410;2023-04-07T11:56:11;10.50;;;5.70;;
71572;SDS011;59408;51.032;9.410;2023-04-07T11:58:45;11.00;;;6.43;;
71572;SDS011;59408;51.032;9.410;2023-04-07T12:01:12;10.63;;;5.60;;
71572;SDS011;59408;51.032;9.410;2023-04-07T12:03:52;9.85;;;5.45;;
71572;SDS011;59408;51.032;9.410;2023-04-07T12:06:25;10.23;;;5.70;;
71572;SDS011;59408;51.032;9.410;2023-04-07T12:08:52;10.45;;;6.38;;
71572;SDS011;59408;51.032;9.410;2023-04-07T12:11:19;11.47;;;6.40;;
71572;SDS011;59408;51.032;9.410;2023-04-07T12:13:47;10.63;;;5.80;;
71572;SDS011;59408;51.032;9.410;2023-04-07T12:16:14;10.13;;;5.90;;
71572;SDS011;59408;51.032;9.410;2023-04-07T12:18:40;13.88;;;6.60;;
71572;SDS011;59408;51.032;9.410;2023-04-07T12:21:07;11.68;;;6.43;;
71572;SDS011;59408;51.032;9.410;2023-04-07T12:23:34;10.20;;;5.90;;
71572;SDS011;59408;51.032;9.410;2023-04-07T12:26:00;13.48;;;7.55;;
71572;SDS011;59408;51.032;9.410;2023-04-07T12:28:27;10.77;;;6.10;;
71572;SDS011;59408;51.032;9.410;2023-04-07T12:30:55;12.82;;;6.93;;
71572;SDS011;59408;51.032;9.410;2023-04-07T12:33:22;11.25;;;6.18;;
71572;SDS011;59408;51.032;9.410;2023-04-07T12:35:48;10.60;;;6.03;;
71572;SDS011;59408;51.032;9.410;2023-04-07T12:38:15;13.15;;;6.90;;
71572;SDS011;59408;51.032;9.410;2023-04-07T12:40:42;10.98;;;6.10;;
71572;SDS011;59408;51.032;9.410;2023-04-07T12:43:08;9.85;;;5.72;;
71572;SDS011;59408;51.032;9.410;2023-04-07T12:45:35;10.40;;;6.05;;
71572;SDS011;59408;51.032;9.410;2023-04-07T12:48:04;12.23;;;6.50;;
71572;SDS011;59408;51.032;9.410;2023-04-07T12:50:30;11.38;;;6.70;;
71572;SDS011;59408;51.032;9.410;2023-04-07T12:52:57;13.40;;;7.65;;
71572;SDS011;59408;51.032;9.410;2023-04-07T12:55:24;11.02;;;6.88;;
71572;SDS011;59408;51.032;9.410;2023-04-07T12:57:51;12.02;;;7.10;;
71572;SDS011;59408;51.032;9.410;2023-04-07T13:00:18;11.37;;;6.83;;
71572;SDS011;59408;51.032;9.410;2023-04-07T13:02:44;11.50;;;6.80;;
71572;SDS011;59408;51.032;9.410;2023-04-07T13:05:13;12.63;;;7.80;;
71572;SDS011;59408;51.032;9.410;2023-04-07T13:07:39;12.60;;;7.18;;
71572;SDS011;59408;51.032;9.410;2023-04-07T13:10:06;13.70;;;7.65;;
71572;SDS011;59408;51.032;9.410;2023-04-07T13:12:34;12.13;;;6.67;;
71572;SDS011;59408;51.032;9.410;2023-04-07T13:15:00;11.88;;;6.85;;
71572;SDS011;59408;51.032;9.410;2023-04-07T13:17:28;8.50;;;4.95;;
71572;SDS011;59408;51.032;9.410;2023-04-07T13:19:55;8.75;;;4.35;;
71572;SDS011;59408;51.032;9.410;2023-04-07T13:22:23;11.00;;;5.82;;
71572;SDS011;59408;51.032;9.410;2023-04-07T13:24:50;11.40;;;6.30;;
71572;SDS011;59408;51.032;9.410;2023-04-07T13:27:16;12.13;;;7.03;;
71572;SDS011;59408;51.032;9.410;2023-04-07T13:29:43;13.18;;;7.40;;
71572;SDS011;59408;51.032;9.410;2023-04-07T13:32:10;12.30;;;7.20;;
71572;SDS011;59408;51.032;9.410;2023-04-07T13:34:36;13.73;;;7.28;;
71572;SDS011;59408;51.032;9.410;2023-04-07T13:37:03;12.87;;;7.50;;
71572;SDS011;59408;51.032;9.410;2023-04-07T13:39:31;12.70;;;6.93;;
71572;SDS011;59408;51.032;9.410;2023-04-07T13:41:58;12.48;;;6.93;;
71572;SDS011;59408;51.032;9.410;2023-04-07T13:44:25;12.00;;;7.45;;
71572;SDS011;59408;51.032;9.410;2023-04-07T13:46:53;12.30;;;6.53;;
71572;SDS011;59408;51.032;9.410;2023-04-07T13:49:20;9.50;;;4.90;;
71572;SDS011;59408;51.032;9.410;2023-04-07T13:51:46;9.80;;;5.35;;
71572;SDS011;59408;51.032;9.410;2023-04-07T13:54:13;9.88;;;5.88;;
71572;SDS011;59408;51.032;9.410;2023-04-07T13:56:42;8.35;;;4.80;;
71572;SDS011;59408;51.032;9.410;2023-04-07T13:59:09;8.38;;;4.80;;
71572;SDS011;59408;51.032;9.410;2023-04-07T14:01:36;9.30;;;4.60;;
71572;SDS011;59408;51.032;9.410;2023-04-07T14:04:02;8.35;;;4.55;;
71572;SDS011;59408;51.032;9.410;2023-04-07T14:06:29;9.35;;;4.72;;
71572;SDS011;59408;51.032;9.410;2023-04-07T14:08:56;8.68;;;5.05;;
71572;SDS011;59408;51.032;9.410;2023-04-07T14:11:23;9.23;;;4.97;;
71572;SDS011;59408;51.032;9.410;2023-04-07T14:13:51;8.97;;;4.90;;
71572;SDS011;59408;51.032;9.410;2023-04-07T14:16:19;9.98;;;5.20;;
71572;SDS011;59408;51.032;9.410;2023-04-07T14:18:45;10.63;;;5.43;;
71572;SDS011;59408;51.032;9.410;2023-04-07T14:21:12;10.25;;;5.15;;
71572;SDS011;59408;51.032;9.410;2023-04-07T14:23:39;10.32;;;5.97;;
71572;SDS011;59408;51.032;9.410;2023-04-07T14:26:08;10.40;;;5.60;;
71572;SDS011;59408;51.032;9.410;2023-04-07T14:28:35;10.45;;;5.90;;
71572;SDS011;59408;51.032;9.410;2023-04-07T14:31:03;11.85;;;6.50;;
71572;SDS011;59408;51.032;9.410;2023-04-07T14:33:29;10.40;;;5.53;;
71572;SDS011;59408;51.032;9.410;2023-04-07T14:35:56;10.50;;;5.30;;
71572;SDS011;59408;51.032;9.410;2023-04-07T14:38:23;11.40;;;6.00;;
71572;SDS011;59408;51.032;9.410;2023-04-07T14:40:49;11.52;;;6.05;;
71572;SDS011;59408;51.032;9.410;2023-04-07T14:43:16;9.55;;;5.18;;
71572;SDS011;59408;51.032;9.410;2023-04-07T14:45:43;8.65;;;4.15;;
71572;SDS011;59408;51.032;9.410;2023-04-07T14:48:11;9.70;;;4.95;;
71572;SDS011;59408;51.032;9.410;2023-04-07T14:50:38;9.93;;;4.60;;
71572;SDS011;59408;51.032;9.410;2023-04-07T14:53:05;8.82;;;4.50;;
71572;SDS011;59408;51.032;9.410;2023-04-07T14:55:32;8.55;;;4.55;;
71572;SDS011;59408;51.032;9.410;2023-04-07T14:57:58;8.80;;;4.43;;